sensor_id;sensor_type;location;lat;lon;timestamp;P1;durP1;ratioP1;P2;durP2;ratioP2
55647;SDS011;45266;48.756;9.246;2023-01-10T00:01:04;3.33;;;1.10;;
55647;SDS011;45266;48.756;9.246;2023-01-10T00:02:06;1.77;;;1.00;;
55647;SDS011;45266;48.756;9.246;2023-01-10T00:03:09;2.67;;;0.93;;
55647;SDS011;45266;48.756;9.246;2023-01-10T00:04:12;2.93;;;0.80;;
55647;SDS011;45266;48.756;9.246;2023-01-10T00:05:14;1.43;;;0.73;;
55647;SDS011;45266;48.756;9.246;2023-01-10T00:06:16;2.57;;;1.10;;
55647;SDS011;45266;48.756;9.246;2023-01-10T00:07:18;1.27;;;0.90;;
55647;SDS011;45266;48.756;9.246;2023-01-10T00:08:19;1.97;;;0.90;;
55647;SDS011;45266;48.756;9.246;2023-01-10T00:09:21;0.93;;;0.80;;
55647;SDS011;45266;48.756;9.246;2023-01-10T00:10:23;0.70;;;0.70;;
55647;SDS011;45266;48.756;9.246;2023-01-10T00:11:25;1.27;;;0.87;;
55647;SDS011;45266;48.756;9.246;2023-01-10T00:12:46;0.87;;;0.73;;
55647;SDS011;45266;48.756;9.246;2023-01-10T00:14:06;0.80;;;0.80;;
55647;SDS011;45266;48.756;9.246;2023-01-10T00:15:08;1.43;;;0.90;;
55647;SDS011;45266;48.756;9.246;2023-01-10T00:16:10;1.30;;;0.80;;
55647;SDS011;45266;48.756;9.246;2023-01-10T00:17:12;0.77;;;0.77;;
55647;SDS011;45266;48.756;9.246;2023-01-10T00:18:13;1.40;;;0.80;;
55647;SDS011;45266;48.756;9.246;2023-01-10T00:19:15;0.80;;;0.80;;
55647;SDS011;45266;48.756;9.246;2023-01-10T00:20:17;0.70;;;0.70;;
55647;SDS011;45266;48.756;9.246;2023-01-10T00:21:19;1.47;;;0.90;;
55647;SDS011;45266;48.756;9.246;2023-01-10T00:22:21;1.13;;;0.70;;
55647;SDS011;45266;48.756;9.246;2023-01-10T00:23:25;0.70;;;0.70;;
55647;SDS011;45266;48.756;9.246;2023-01-10T00:24:27;0.73;;;0.70;;
55647;SDS011;45266;48.756;9.246;2023-01-10T00:25:29;0.70;;;0.70;;
55647;SDS011;45266;48.756;9.246;2023-01-10T00:26:33;0.97;;;0.80;;
55647;SDS011;45266;48.756;9.246;2023-01-10T00:27:35;1.80;;;0.70;;
55647;SDS011;45266;48.756;9.246;2023-01-10T00:28:37;1.93;;;1.00;;
55647;SDS011;45266;48.756;9.246;2023-01-10T00:29:39;1.03;;;0.80;;
55647;SDS011;45266;48.756;9.246;2023-01-10T00:30:41;1.03;;;0.80;;
55647;SDS011;45266;48.756;9.246;2023-01-10T00:31:43;1.20;;;0.70;;
55647;SDS011;45266;48.756;9.246;2023-01-10T00:32:45;0.90;;;0.60;;
55647;SDS011;45266;48.756;9.246;2023-01-10T00:33:46;2.53;;;0.80;;
55647;SDS011;45266;48.756;9.246;2023-01-10T00:34:48;1.97;;;0.80;;
55647;SDS011;45266;48.756;9.246;2023-01-10T00:35:50;1.10;;;0.70;;
55647;SDS011;45266;48.756;9.246;2023-01-10T00:36:52;2.60;;;0.80;;
55647;SDS011;45266;48.756;9.246;2023-01-10T00:37:54;2.03;;;0.80;;
55647;SDS011;45266;48.756;9.246;2023-01-10T00:39:01;2.03;;;1.00;;
55647;SDS011;45266;48.756;9.246;2023-01-10T00:40:04;1.43;;;1.00;;
55647;SDS011;45266;48.756;9.246;2023-01-10T00:41:09;0.83;;;0.83;;
55647;SDS011;45266;48.756;9.246;2023-01-10T00:42:31;3.07;;;1.00;;
55647;SDS011;45266;48.756;9.246;2023-01-10T00:43:52;3.33;;;1.00;;
55647;SDS011;45266;48.756;9.246;2023-01-10T00:44:56;1.03;;;0.90;;
55647;SDS011;45266;48.756;9.246;2023-01-10T00:45:58;0.70;;;0.70;;
55647;SDS011;45266;48.756;9.246;2023-01-10T00:47:01;0.83;;;0.80;;
55647;SDS011;45266;48.756;9.246;2023-01-10T00:48:03;0.93;;;0.80;;
55647;SDS011;45266;48.756;9.246;2023-01-10T00:49:05;1.67;;;0.70;;
55647;SDS011;45266;48.756;9.246;2023-01-10T00:50:09;0.90;;;0.90;;
55647;SDS011;45266;48.756;9.246;2023-01-10T00:51:14;0.97;;;0.90;;
55647;SDS011;45266;48.756;9.246;2023-01-10T00:52:16;0.87;;;0.83;;
55647;SDS011;45266;48.756;9.246;2023-01-10T00:53:18;0.87;;;0.70;;
55647;SDS011;45266;48.756;9.246;2023-01-10T00:54:19;1.90;;;0.93;;
55647;SDS011;45266;48.756;9.246;2023-01-10T00:55:21;0.60;;;0.60;;
55647;SDS011;45266;48.756;9.246;2023-01-10T00:56:23;1.97;;;0.93;;
55647;SDS011;45266;48.756;9.246;2023-01-10T00:57:25;1.27;;;1.00;;
55647;SDS011;45266;48.756;9.246;2023-01-10T00:58:26;4.43;;;1.30;;
55647;SDS011;45266;48.756;9.246;2023-01-10T00:59:28;1.37;;;0.90;;
55647;SDS011;45266;48.756;9.246;2023-01-10T01:00:30;0.80;;;0.80;;
55647;SDS011;45266;48.756;9.246;2023-01-10T01:01:32;1.60;;;1.00;;
55647;SDS011;45266;48.756;9.246;2023-01-10T01:02:33;2.40;;;0.97;;
55647;SDS011;45266;48.756;9.246;2023-01-10T01:03:36;2.40;;;1.20;;
55647;SDS011;45266;48.756;9.246;2023-01-10T01:04:38;1.80;;;0.90;;
55647;SDS011;45266;48.756;9.246;2023-01-10T01:05:40;1.20;;;0.90;;
55647;SDS011;45266;48.756;9.246;2023-01-10T01:06:43;0.70;;;0.70;;
55647;SDS011;45266;48.756;9.246;2023-01-10T01:07:48;1.27;;;0.70;;
55647;SDS011;45266;48.756;9.246;2023-01-10T01:08:50;1.30;;;0.90;;
55647;SDS011;45266;48.756;9.246;2023-01-10T01:09:52;1.93;;;0.97;;
55647;SDS011;45266;48.756;9.246;2023-01-10T01:11:12;1.30;;;0.90;;
55647;SDS011;45266;48.756;9.246;2023-01-10T01:12:14;0.80;;;0.80;;
55647;SDS011;45266;48.756;9.246;2023-01-10T01:13:17;0.80;;;0.80;;
55647;SDS011;45266;48.756;9.246;2023-01-10T01:14:21;1.10;;;1.00;;
55647;SDS011;45266;48.756;9.246;2023-01-10T01:15:26;1.43;;;1.00;;
55647;SDS011;45266;48.756;9.246;2023-01-10T01:16:28;1.03;;;0.80;;
55647;SDS011;45266;48.756;9.246;2023-01-10T01:17:30;1.00;;;0.90;;
55647;SDS011;45266;48.756;9.246;2023-01-10T01:18:32;1.30;;;0.80;;
55647;SDS011;45266;48.756;9.246;2023-01-10T01:19:34;0.90;;;0.80;;
55647;SDS011;45266;48.756;9.246;2023-01-10T01:20:37;2.03;;;1.40;;
55647;SDS011;45266;48.756;9.246;2023-01-10T01:21:40;1.33;;;1.00;;
55647;SDS011;45266;48.756;9.246;2023-01-10T01:22:42;0.80;;;0.80;;
55647;SDS011;45266;48.756;9.246;2023-01-10T01:23:44;1.10;;;1.00;;
55647;SDS011;45266;48.756;9.246;2023-01-10T01:24:45;1.10;;;0.90;;
55647;SDS011;45266;48.756;9.246;2023-01-10T01:25:50;0.80;;;0.80;;
55647;SDS011;45266;48.756;9.246;2023-01-10T01:26:53;2.17;;;0.83;;
55647;SDS011;45266;48.756;9.246;2023-01-10T01:27:55;1.30;;;1.20;;
55647;SDS011;45266;48.756;9.246;2023-01-10T01:28:57;0.97;;;0.90;;
55647;SDS011;45266;48.756;9.246;2023-01-10T01:29:58;1.07;;;0.87;;
55647;SDS011;45266;48.756;9.246;2023-01-10T01:31:05;1.17;;;1.03;;
55647;SDS011;45266;48.756;9.246;2023-01-10T01:32:08;1.67;;;1.10;;
55647;SDS011;45266;48.756;9.246;2023-01-10T01:33:10;2.20;;;1.20;;
55647;SDS011;45266;48.756;9.246;2023-01-10T01:34:12;1.80;;;0.90;;
55647;SDS011;45266;48.756;9.246;2023-01-10T01:35:14;2.87;;;1.13;;
55647;SDS011;45266;48.756;9.246;2023-01-10T01:36:17;2.60;;;1.03;;
55647;SDS011;45266;48.756;9.246;2023-01-10T01:37:18;1.10;;;1.00;;
55647;SDS011;45266;48.756;9.246;2023-01-10T01:38:20;1.30;;;1.10;;
55647;SDS011;45266;48.756;9.246;2023-01-10T01:39:22;1.97;;;1.10;;
55647;SDS011;45266;48.756;9.246;2023-01-10T01:40:25;0.80;;;0.80;;
55647;SDS011;45266;48.756;9.246;2023-01-10T01:41:27;2.00;;;1.00;;
55647;SDS011;45266;48.756;9.246;2023-01-10T01:42:47;1.03;;;0.93;;
55647;SDS011;45266;48.756;9.246;2023-01-10T01:44:04;0.77;;;0.77;;
55647;SDS011;45266;48.756;9.246;2023-01-10T01:46:09;0.97;;;0.90;;
55647;SDS011;45266;48.756;9.246;2023-01-10T01:47:20;1.70;;;0.90;;
55647;SDS011;45266;48.756;9.246;2023-01-10T01:49:31;1.23;;;0.90;;
55647;SDS011;45266;48.756;9.246;2023-01-10T01:50:39;1.30;;;0.70;;
55647;SDS011;45266;48.756;9.246;2023-01-10T01:52:07;0.90;;;0.80;;
55647;SDS011;45266;48.756;9.246;2023-01-10T01:53:39;1.07;;;0.80;;
55647;SDS011;45266;48.756;9.246;2023-01-10T01:54:46;0.67;;;0.67;;
55647;SDS011;45266;48.756;9.246;2023-01-10T01:55:48;0.70;;;0.70;;
55647;SDS011;45266;48.756;9.246;2023-01-10T01:56:54;0.73;;;0.73;;
55647;SDS011;45266;48.756;9.246;2023-01-10T01:58:03;1.17;;;0.83;;
55647;SDS011;45266;48.756;9.246;2023-01-10T01:59:11;2.33;;;0.77;;
55647;SDS011;45266;48.756;9.246;2023-01-10T02:00:26;0.50;;;0.50;;
55647;SDS011;45266;48.756;9.246;2023-01-10T02:01:28;0.70;;;0.60;;
55647;SDS011;45266;48.756;9.246;2023-01-10T02:02:32;0.60;;;0.60;;
55647;SDS011;45266;48.756;9.246;2023-01-10T02:03:39;1.43;;;0.63;;
55647;SDS011;45266;48.756;9.246;2023-01-10T02:05:58;0.77;;;0.60;;
55647;SDS011;45266;48.756;9.246;2023-01-10T02:07:00;0.83;;;0.53;;
55647;SDS011;45266;48.756;9.246;2023-01-10T02:08:02;1.60;;;0.60;;
55647;SDS011;45266;48.756;9.246;2023-01-10T02:09:07;0.80;;;0.63;;
55647;SDS011;45266;48.756;9.246;2023-01-10T02:10:16;1.77;;;0.60;;
55647;SDS011;45266;48.756;9.246;2023-01-10T02:11:25;0.97;;;0.80;;
55647;SDS011;45266;48.756;9.246;2023-01-10T02:12:27;1.33;;;0.80;;
55647;SDS011;45266;48.756;9.246;2023-01-10T02:13:30;0.60;;;0.60;;
55647;SDS011;45266;48.756;9.246;2023-01-10T02:14:35;0.50;;;0.50;;
55647;SDS011;45266;48.756;9.246;2023-01-10T02:15:38;0.40;;;0.40;;
55647;SDS011;45266;48.756;9.246;2023-01-10T02:16:40;0.60;;;0.50;;
55647;SDS011;45266;48.756;9.246;2023-01-10T02:17:41;0.80;;;0.60;;
55647;SDS011;45266;48.756;9.246;2023-01-10T02:18:44;0.70;;;0.53;;
55647;SDS011;45266;48.756;9.246;2023-01-10T02:19:49;0.50;;;0.50;;
55647;SDS011;45266;48.756;9.246;2023-01-10T02:21:04;0.60;;;0.50;;
55647;SDS011;45266;48.756;9.246;2023-01-10T02:24:56;0.60;;;0.60;;
55647;SDS011;45266;48.756;9.246;2023-01-10T02:27:16;0.70;;;0.67;;
55647;SDS011;45266;48.756;9.246;2023-01-10T02:30:04;1.50;;;0.57;;
55647;SDS011;45266;48.756;9.246;2023-01-10T02:33:02;0.97;;;0.60;;
55647;SDS011;45266;48.756;9.246;2023-01-10T02:34:12;0.87;;;0.87;;
55647;SDS011;45266;48.756;9.246;2023-01-10T02:35:39;2.17;;;0.70;;
55647;SDS011;45266;48.756;9.246;2023-01-10T02:37:10;1.40;;;0.77;;
55647;SDS011;45266;48.756;9.246;2023-01-10T02:40:53;0.70;;;0.70;;
55647;SDS011;45266;48.756;9.246;2023-01-10T02:42:07;1.43;;;1.00;;
55647;SDS011;45266;48.756;9.246;2023-01-10T02:43:14;1.47;;;0.80;;
55647;SDS011;45266;48.756;9.246;2023-01-10T02:44:39;2.87;;;1.00;;
55647;SDS011;45266;48.756;9.246;2023-01-10T02:47:12;1.10;;;1.00;;
55647;SDS011;45266;48.756;9.246;2023-01-10T02:48:15;1.30;;;1.10;;
55647;SDS011;45266;48.756;9.246;2023-01-10T02:49:17;1.70;;;0.90;;
55647;SDS011;45266;48.756;9.246;2023-01-10T02:51:07;0.90;;;0.90;;
55647;SDS011;45266;48.756;9.246;2023-01-10T02:51:41;2.03;;;1.00;;
55647;SDS011;45266;48.756;9.246;2023-01-10T02:52:43;2.03;;;1.00;;
55647;SDS011;45266;48.756;9.246;2023-01-10T02:53:46;1.10;;;1.00;;
55647;SDS011;45266;48.756;9.246;2023-01-10T02:54:54;1.27;;;1.00;;
55647;SDS011;45266;48.756;9.246;2023-01-10T02:56:12;1.80;;;1.10;;
55647;SDS011;45266;48.756;9.246;2023-01-10T02:58:54;1.53;;;1.20;;
55647;SDS011;45266;48.756;9.246;2023-01-10T03:06:15;1.13;;;1.00;;
55647;SDS011;45266;48.756;9.246;2023-01-10T03:08:37;1.40;;;0.90;;
55647;SDS011;45266;48.756;9.246;2023-01-10T03:09:53;1.33;;;1.00;;
55647;SDS011;45266;48.756;9.246;2023-01-10T03:11:09;3.00;;;1.23;;
55647;SDS011;45266;48.756;9.246;2023-01-10T03:12:18;1.73;;;1.10;;
55647;SDS011;45266;48.756;9.246;2023-01-10T03:14:56;2.47;;;1.13;;
55647;SDS011;45266;48.756;9.246;2023-01-10T03:16:00;3.10;;;1.30;;
55647;SDS011;45266;48.756;9.246;2023-01-10T03:17:05;2.00;;;1.10;;
55647;SDS011;45266;48.756;9.246;2023-01-10T03:18:12;3.37;;;1.20;;
55647;SDS011;45266;48.756;9.246;2023-01-10T03:19:21;2.43;;;1.03;;
55647;SDS011;45266;48.756;9.246;2023-01-10T03:20:27;1.03;;;1.00;;
55647;SDS011;45266;48.756;9.246;2023-01-10T03:21:34;4.20;;;1.00;;
55647;SDS011;45266;48.756;9.246;2023-01-10T03:22:38;3.80;;;1.27;;
55647;SDS011;45266;48.756;9.246;2023-01-10T03:23:43;1.93;;;1.10;;
55647;SDS011;45266;48.756;9.246;2023-01-10T03:24:47;1.63;;;1.07;;
55647;SDS011;45266;48.756;9.246;2023-01-10T03:25:51;1.60;;;1.17;;
55647;SDS011;45266;48.756;9.246;2023-01-10T03:27:19;2.27;;;0.90;;
55647;SDS011;45266;48.756;9.246;2023-01-10T03:28:27;2.27;;;1.00;;
55647;SDS011;45266;48.756;9.246;2023-01-10T03:29:35;1.73;;;1.10;;
55647;SDS011;45266;48.756;9.246;2023-01-10T03:32:11;3.60;;;1.50;;
55647;SDS011;45266;48.756;9.246;2023-01-10T03:33:16;2.13;;;1.30;;
55647;SDS011;45266;48.756;9.246;2023-01-10T03:34:21;3.10;;;1.43;;
55647;SDS011;45266;48.756;9.246;2023-01-10T03:35:29;3.20;;;1.30;;
55647;SDS011;45266;48.756;9.246;2023-01-10T03:36:59;1.83;;;1.30;;
55647;SDS011;45266;48.756;9.246;2023-01-10T03:38:09;2.17;;;1.73;;
55647;SDS011;45266;48.756;9.246;2023-01-10T03:39:32;4.20;;;1.60;;
55647;SDS011;45266;48.756;9.246;2023-01-10T03:42:06;2.63;;;1.60;;
55647;SDS011;45266;48.756;9.246;2023-01-10T03:43:18;4.93;;;1.70;;
55647;SDS011;45266;48.756;9.246;2023-01-10T03:46:00;3.43;;;1.50;;
55647;SDS011;45266;48.756;9.246;2023-01-10T03:48:35;4.37;;;2.00;;
55647;SDS011;45266;48.756;9.246;2023-01-10T03:49:40;4.33;;;1.90;;
55647;SDS011;45266;48.756;9.246;2023-01-10T03:50:44;4.63;;;1.93;;
55647;SDS011;45266;48.756;9.246;2023-01-10T03:51:47;3.00;;;1.60;;
55647;SDS011;45266;48.756;9.246;2023-01-10T03:52:50;5.27;;;1.73;;
55647;SDS011;45266;48.756;9.246;2023-01-10T03:53:52;3.47;;;1.70;;
55647;SDS011;45266;48.756;9.246;2023-01-10T03:54:54;2.70;;;1.80;;
55647;SDS011;45266;48.756;9.246;2023-01-10T03:55:59;3.53;;;1.47;;
55647;SDS011;45266;48.756;9.246;2023-01-10T03:57:01;5.57;;;1.90;;
55647;SDS011;45266;48.756;9.246;2023-01-10T03:58:03;5.97;;;2.13;;
55647;SDS011;45266;48.756;9.246;2023-01-10T03:59:04;4.97;;;1.83;;
55647;SDS011;45266;48.756;9.246;2023-01-10T04:00:06;4.27;;;2.10;;
55647;SDS011;45266;48.756;9.246;2023-01-10T04:01:08;3.50;;;1.90;;
55647;SDS011;45266;48.756;9.246;2023-01-10T04:02:11;3.67;;;1.97;;
55647;SDS011;45266;48.756;9.246;2023-01-10T04:03:13;5.07;;;1.80;;
55647;SDS011;45266;48.756;9.246;2023-01-10T04:04:16;7.47;;;2.40;;
55647;SDS011;45266;48.756;9.246;2023-01-10T04:05:18;4.90;;;2.30;;
55647;SDS011;45266;48.756;9.246;2023-01-10T04:06:19;4.27;;;1.73;;
55647;SDS011;45266;48.756;9.246;2023-01-10T04:07:21;3.17;;;1.70;;
55647;SDS011;45266;48.756;9.246;2023-01-10T04:08:23;4.07;;;1.90;;
55647;SDS011;45266;48.756;9.246;2023-01-10T04:09:25;2.33;;;2.10;;
55647;SDS011;45266;48.756;9.246;2023-01-10T04:10:27;4.43;;;2.00;;
55647;SDS011;45266;48.756;9.246;2023-01-10T04:11:29;2.87;;;1.70;;
55647;SDS011;45266;48.756;9.246;2023-01-10T04:12:31;3.57;;;1.60;;
55647;SDS011;45266;48.756;9.246;2023-01-10T04:13:33;3.17;;;1.70;;
55647;SDS011;45266;48.756;9.246;2023-01-10T04:14:35;3.20;;;1.60;;
55647;SDS011;45266;48.756;9.246;2023-01-10T04:15:37;2.60;;;1.70;;
55647;SDS011;45266;48.756;9.246;2023-01-10T04:16:39;2.70;;;1.77;;
55647;SDS011;45266;48.756;9.246;2023-01-10T04:17:40;3.57;;;1.90;;
55647;SDS011;45266;48.756;9.246;2023-01-10T04:18:42;4.20;;;1.63;;
55647;SDS011;45266;48.756;9.246;2023-01-10T04:19:44;2.83;;;1.50;;
55647;SDS011;45266;48.756;9.246;2023-01-10T04:20:46;2.43;;;1.43;;
55647;SDS011;45266;48.756;9.246;2023-01-10T04:21:47;2.50;;;1.80;;
55647;SDS011;45266;48.756;9.246;2023-01-10T04:22:49;3.87;;;2.27;;
55647;SDS011;45266;48.756;9.246;2023-01-10T04:23:51;4.60;;;1.60;;
55647;SDS011;45266;48.756;9.246;2023-01-10T04:24:53;3.93;;;1.93;;
55647;SDS011;45266;48.756;9.246;2023-01-10T04:25:55;4.30;;;1.80;;
55647;SDS011;45266;48.756;9.246;2023-01-10T04:26:57;6.23;;;1.80;;
55647;SDS011;45266;48.756;9.246;2023-01-10T04:27:59;3.97;;;1.83;;
55647;SDS011;45266;48.756;9.246;2023-01-10T04:29:00;5.07;;;1.60;;
55647;SDS011;45266;48.756;9.246;2023-01-10T04:30:02;3.73;;;1.63;;
55647;SDS011;45266;48.756;9.246;2023-01-10T04:31:05;6.77;;;1.70;;
55647;SDS011;45266;48.756;9.246;2023-01-10T04:32:07;3.60;;;1.57;;
55647;SDS011;45266;48.756;9.246;2023-01-10T04:33:08;2.20;;;1.60;;
55647;SDS011;45266;48.756;9.246;2023-01-10T04:34:11;4.50;;;1.63;;
55647;SDS011;45266;48.756;9.246;2023-01-10T04:35:13;2.00;;;1.70;;
55647;SDS011;45266;48.756;9.246;2023-01-10T04:36:15;3.63;;;1.53;;
55647;SDS011;45266;48.756;9.246;2023-01-10T04:37:17;4.70;;;1.90;;
55647;SDS011;45266;48.756;9.246;2023-01-10T04:38:19;2.60;;;1.50;;
55647;SDS011;45266;48.756;9.246;2023-01-10T04:39:21;3.77;;;1.40;;
55647;SDS011;45266;48.756;9.246;2023-01-10T04:40:23;1.90;;;1.43;;
55647;SDS011;45266;48.756;9.246;2023-01-10T04:41:25;5.00;;;1.80;;
55647;SDS011;45266;48.756;9.246;2023-01-10T04:42:26;3.03;;;1.40;;
55647;SDS011;45266;48.756;9.246;2023-01-10T04:43:28;3.37;;;1.67;;
55647;SDS011;45266;48.756;9.246;2023-01-10T04:44:30;3.53;;;1.40;;
55647;SDS011;45266;48.756;9.246;2023-01-10T04:45:32;2.80;;;1.70;;
55647;SDS011;45266;48.756;9.246;2023-01-10T04:46:34;4.50;;;1.60;;
55647;SDS011;45266;48.756;9.246;2023-01-10T04:47:36;2.20;;;1.43;;
55647;SDS011;45266;48.756;9.246;2023-01-10T04:48:37;4.30;;;1.57;;
55647;SDS011;45266;48.756;9.246;2023-01-10T04:49:39;2.37;;;1.60;;
55647;SDS011;45266;48.756;9.246;2023-01-10T04:50:41;3.53;;;1.40;;
55647;SDS011;45266;48.756;9.246;2023-01-10T04:51:42;4.77;;;1.60;;
55647;SDS011;45266;48.756;9.246;2023-01-10T04:52:44;2.80;;;1.70;;
55647;SDS011;45266;48.756;9.246;2023-01-10T04:53:46;3.97;;;1.87;;
55647;SDS011;45266;48.756;9.246;2023-01-10T04:54:48;5.00;;;1.60;;
55647;SDS011;45266;48.756;9.246;2023-01-10T04:55:49;4.67;;;1.70;;
55647;SDS011;45266;48.756;9.246;2023-01-10T04:56:51;5.83;;;1.90;;
55647;SDS011;45266;48.756;9.246;2023-01-10T04:57:53;4.27;;;1.77;;
55647;SDS011;45266;48.756;9.246;2023-01-10T04:58:55;5.27;;;1.60;;
55647;SDS011;45266;48.756;9.246;2023-01-10T04:59:57;2.80;;;1.63;;
55647;SDS011;45266;48.756;9.246;2023-01-10T05:00:58;3.40;;;1.93;;
55647;SDS011;45266;48.756;9.246;2023-01-10T05:02:00;3.77;;;2.00;;
55647;SDS011;45266;48.756;9.246;2023-01-10T05:03:02;3.17;;;1.90;;
55647;SDS011;45266;48.756;9.246;2023-01-10T05:04:05;4.53;;;1.97;;
55647;SDS011;45266;48.756;9.246;2023-01-10T05:05:07;3.80;;;1.63;;
55647;SDS011;45266;48.756;9.246;2023-01-10T05:06:13;5.63;;;2.13;;
55647;SDS011;45266;48.756;9.246;2023-01-10T05:07:14;5.63;;;1.87;;
55647;SDS011;45266;48.756;9.246;2023-01-10T05:08:16;5.77;;;1.93;;
55647;SDS011;45266;48.756;9.246;2023-01-10T05:09:18;4.17;;;1.60;;
55647;SDS011;45266;48.756;9.246;2023-01-10T05:10:20;4.90;;;1.63;;
55647;SDS011;45266;48.756;9.246;2023-01-10T05:11:22;5.77;;;2.17;;
55647;SDS011;45266;48.756;9.246;2023-01-10T05:12:23;6.27;;;1.97;;
55647;SDS011;45266;48.756;9.246;2023-01-10T05:13:25;6.83;;;2.20;;
55647;SDS011;45266;48.756;9.246;2023-01-10T05:14:27;4.33;;;1.80;;
55647;SDS011;45266;48.756;9.246;2023-01-10T05:15:29;7.07;;;2.07;;
55647;SDS011;45266;48.756;9.246;2023-01-10T05:16:31;3.83;;;1.90;;
55647;SDS011;45266;48.756;9.246;2023-01-10T05:17:33;6.97;;;2.10;;
55647;SDS011;45266;48.756;9.246;2023-01-10T05:18:34;4.37;;;1.90;;
55647;SDS011;45266;48.756;9.246;2023-01-10T05:19:36;6.30;;;2.10;;
55647;SDS011;45266;48.756;9.246;2023-01-10T05:20:38;6.50;;;2.00;;
55647;SDS011;45266;48.756;9.246;2023-01-10T05:21:40;5.37;;;1.97;;
55647;SDS011;45266;48.756;9.246;2023-01-10T05:22:41;7.37;;;2.10;;
55647;SDS011;45266;48.756;9.246;2023-01-10T05:23:43;4.00;;;1.73;;
55647;SDS011;45266;48.756;9.246;2023-01-10T05:24:45;5.20;;;1.93;;
55647;SDS011;45266;48.756;9.246;2023-01-10T05:25:46;4.77;;;1.90;;
55647;SDS011;45266;48.756;9.246;2023-01-10T05:26:48;4.30;;;1.97;;
55647;SDS011;45266;48.756;9.246;2023-01-10T05:27:50;5.80;;;2.30;;
55647;SDS011;45266;48.756;9.246;2023-01-10T05:28:52;6.23;;;2.23;;
55647;SDS011;45266;48.756;9.246;2023-01-10T05:29:54;6.07;;;2.23;;
55647;SDS011;45266;48.756;9.246;2023-01-10T05:30:56;7.30;;;2.17;;
55647;SDS011;45266;48.756;9.246;2023-01-10T05:31:57;6.60;;;1.87;;
55647;SDS011;45266;48.756;9.246;2023-01-10T05:33:00;5.40;;;1.93;;
55647;SDS011;45266;48.756;9.246;2023-01-10T05:34:04;3.53;;;2.20;;
55647;SDS011;45266;48.756;9.246;2023-01-10T05:35:06;7.80;;;2.57;;
55647;SDS011;45266;48.756;9.246;2023-01-10T05:36:08;8.07;;;1.87;;
55647;SDS011;45266;48.756;9.246;2023-01-10T05:37:10;7.47;;;2.50;;
55647;SDS011;45266;48.756;9.246;2023-01-10T05:38:12;7.23;;;2.40;;
55647;SDS011;45266;48.756;9.246;2023-01-10T05:39:14;4.77;;;2.00;;
55647;SDS011;45266;48.756;9.246;2023-01-10T05:40:15;5.77;;;1.90;;
55647;SDS011;45266;48.756;9.246;2023-01-10T05:41:17;6.70;;;2.00;;
55647;SDS011;45266;48.756;9.246;2023-01-10T05:42:19;10.60;;;2.10;;
55647;SDS011;45266;48.756;9.246;2023-01-10T05:43:21;4.87;;;1.97;;
55647;SDS011;45266;48.756;9.246;2023-01-10T05:44:23;7.03;;;2.17;;
55647;SDS011;45266;48.756;9.246;2023-01-10T05:45:25;8.93;;;2.43;;
55647;SDS011;45266;48.756;9.246;2023-01-10T05:46:27;9.97;;;2.43;;
55647;SDS011;45266;48.756;9.246;2023-01-10T05:47:29;7.27;;;2.20;;
55647;SDS011;45266;48.756;9.246;2023-01-10T05:48:30;8.97;;;2.63;;
55647;SDS011;45266;48.756;9.246;2023-01-10T05:49:32;7.67;;;2.20;;
55647;SDS011;45266;48.756;9.246;2023-01-10T05:50:34;7.10;;;2.30;;
55647;SDS011;45266;48.756;9.246;2023-01-10T05:51:36;9.13;;;2.20;;
55647;SDS011;45266;48.756;9.246;2023-01-10T05:52:37;4.50;;;1.90;;
55647;SDS011;45266;48.756;9.246;2023-01-10T05:53:40;10.63;;;2.43;;
55647;SDS011;45266;48.756;9.246;2023-01-10T05:54:42;7.03;;;2.33;;
55647;SDS011;45266;48.756;9.246;2023-01-10T05:55:55;9.10;;;2.00;;
55647;SDS011;45266;48.756;9.246;2023-01-10T05:56:58;6.23;;;2.53;;
55647;SDS011;45266;48.756;9.246;2023-01-10T05:57:59;9.07;;;2.53;;
55647;SDS011;45266;48.756;9.246;2023-01-10T05:59:01;7.00;;;2.20;;
55647;SDS011;45266;48.756;9.246;2023-01-10T06:00:23;9.47;;;2.83;;
55647;SDS011;45266;48.756;9.246;2023-01-10T06:01:25;9.17;;;2.20;;
55647;SDS011;45266;48.756;9.246;2023-01-10T06:02:27;11.07;;;2.17;;
55647;SDS011;45266;48.756;9.246;2023-01-10T06:03:29;10.17;;;2.73;;
55647;SDS011;45266;48.756;9.246;2023-01-10T06:04:30;4.53;;;2.00;;
55647;SDS011;45266;48.756;9.246;2023-01-10T06:05:32;10.33;;;2.20;;
55647;SDS011;45266;48.756;9.246;2023-01-10T06:06:34;5.70;;;1.90;;
55647;SDS011;45266;48.756;9.246;2023-01-10T06:07:36;6.87;;;2.03;;
55647;SDS011;45266;48.756;9.246;2023-01-10T06:08:37;6.57;;;2.10;;
55647;SDS011;45266;48.756;9.246;2023-01-10T06:09:40;10.73;;;2.30;;
55647;SDS011;45266;48.756;9.246;2023-01-10T06:10:43;8.20;;;2.37;;
55647;SDS011;45266;48.756;9.246;2023-01-10T06:11:44;8.70;;;1.80;;
55647;SDS011;45266;48.756;9.246;2023-01-10T06:12:46;7.13;;;2.17;;
55647;SDS011;45266;48.756;9.246;2023-01-10T06:13:49;7.40;;;2.13;;
55647;SDS011;45266;48.756;9.246;2023-01-10T06:14:55;4.27;;;1.83;;
55647;SDS011;45266;48.756;9.246;2023-01-10T06:15:57;5.57;;;2.07;;
55647;SDS011;45266;48.756;9.246;2023-01-10T06:16:59;9.10;;;2.50;;
55647;SDS011;45266;48.756;9.246;2023-01-10T06:18:01;6.80;;;2.20;;
55647;SDS011;45266;48.756;9.246;2023-01-10T06:19:03;3.70;;;1.77;;
55647;SDS011;45266;48.756;9.246;2023-01-10T06:20:05;8.70;;;2.63;;
55647;SDS011;45266;48.756;9.246;2023-01-10T06:21:07;6.60;;;2.00;;
55647;SDS011;45266;48.756;9.246;2023-01-10T06:22:09;8.83;;;2.40;;
55647;SDS011;45266;48.756;9.246;2023-01-10T06:23:10;4.83;;;2.33;;
55647;SDS011;45266;48.756;9.246;2023-01-10T06:24:12;6.27;;;2.03;;
55647;SDS011;45266;48.756;9.246;2023-01-10T06:25:14;6.00;;;2.00;;
55647;SDS011;45266;48.756;9.246;2023-01-10T06:26:16;8.17;;;2.60;;
55647;SDS011;45266;48.756;9.246;2023-01-10T06:27:18;8.03;;;3.03;;
55647;SDS011;45266;48.756;9.246;2023-01-10T06:28:20;9.17;;;4.03;;
55647;SDS011;45266;48.756;9.246;2023-01-10T06:29:22;10.53;;;5.97;;
55647;SDS011;45266;48.756;9.246;2023-01-10T06:30:24;8.10;;;2.60;;
55647;SDS011;45266;48.756;9.246;2023-01-10T06:31:26;4.73;;;2.80;;
55647;SDS011;45266;48.756;9.246;2023-01-10T06:32:27;7.43;;;2.47;;
55647;SDS011;45266;48.756;9.246;2023-01-10T06:33:29;6.40;;;2.27;;
55647;SDS011;45266;48.756;9.246;2023-01-10T06:34:31;9.07;;;2.50;;
55647;SDS011;45266;48.756;9.246;2023-01-10T06:35:33;7.20;;;2.00;;
55647;SDS011;45266;48.756;9.246;2023-01-10T06:36:35;8.07;;;1.90;;
55647;SDS011;45266;48.756;9.246;2023-01-10T06:37:37;7.47;;;2.17;;
55647;SDS011;45266;48.756;9.246;2023-01-10T06:38:39;6.43;;;2.50;;
55647;SDS011;45266;48.756;9.246;2023-01-10T06:39:41;6.70;;;2.00;;
55647;SDS011;45266;48.756;9.246;2023-01-10T06:40:42;7.50;;;2.43;;
55647;SDS011;45266;48.756;9.246;2023-01-10T06:41:44;5.87;;;2.23;;
55647;SDS011;45266;48.756;9.246;2023-01-10T06:42:46;6.23;;;1.90;;
55647;SDS011;45266;48.756;9.246;2023-01-10T06:43:48;7.20;;;2.03;;
55647;SDS011;45266;48.756;9.246;2023-01-10T06:44:50;6.03;;;2.27;;
55647;SDS011;45266;48.756;9.246;2023-01-10T06:45:52;6.17;;;2.00;;
55647;SDS011;45266;48.756;9.246;2023-01-10T06:46:53;6.87;;;2.40;;
55647;SDS011;45266;48.756;9.246;2023-01-10T06:47:55;7.00;;;2.60;;
55647;SDS011;45266;48.756;9.246;2023-01-10T06:48:57;4.17;;;1.60;;
55647;SDS011;45266;48.756;9.246;2023-01-10T06:49:59;5.27;;;1.90;;
55647;SDS011;45266;48.756;9.246;2023-01-10T06:51:01;9.93;;;1.70;;
55647;SDS011;45266;48.756;9.246;2023-01-10T06:52:06;6.90;;;2.10;;
55647;SDS011;45266;48.756;9.246;2023-01-10T06:53:08;4.20;;;1.70;;
55647;SDS011;45266;48.756;9.246;2023-01-10T06:54:09;5.20;;;1.90;;
55647;SDS011;45266;48.756;9.246;2023-01-10T06:55:12;3.87;;;1.60;;
55647;SDS011;45266;48.756;9.246;2023-01-10T06:56:13;6.50;;;2.13;;
55647;SDS011;45266;48.756;9.246;2023-01-10T06:57:15;5.27;;;1.83;;
55647;SDS011;45266;48.756;9.246;2023-01-10T06:58:17;7.13;;;2.13;;